Time;durP1;ratioP1;P1;durP2;ratioP2;P2;SDS_P1;SDS_P2;PMS_P1;PMS_P2;Temp;Humidity;BMP_temperature;BMP_pressure;BME280_temperature;BME280_humidity;BME280_pressure;Samples;Min_cycle;Max_cycle;Signal;HPM_P1;HPM_P2
2023/12/11 00:01:09;;;;;;;17.95;3.53;;;9.90;99.90;;;;;;5040517;28;20099;-90
2023/12/11 00:03:35;;;;;;;16.42;2.72;;;9.80;99.90;;;;;;5059814;28;20036;-90
2023/12/11 00:06:02;;;;;;;10.63;2.05;;;9.80;99.90;;;;;;5056692;28;20436;-90
2023/12/11 00:08:27;;;;;;;18.52;2.70;;;9.70;99.90;;;;;;5058476;28;20033;-90
2023/12/11 00:10:53;;;;;;;23.27;2.67;;;9.70;99.90;;;;;;5040802;28;20029;-90
2023/12/11 00:13:19;;;;;;;20.08;2.92;;;9.70;99.90;;;;;;5058552;28;20459;-90
2023/12/11 00:15:44;;;;;;;16.08;2.63;;;9.60;99.90;;;;;;5059269;28;20564;-90
2023/12/11 00:18:10;;;;;;;14.23;2.63;;;9.60;99.90;;;;;;5039862;28;20065;-89
2023/12/11 00:20:36;;;;;;;8.88;1.77;;;9.60;99.90;;;;;;5042937;28;20047;-90
2023/12/11 00:23:02;;;;;;;13.15;2.28;;;9.60;99.90;;;;;;5063290;28;20069;-90
2023/12/11 00:25:28;;;;;;;10.55;2.25;;;9.60;99.90;;;;;;5062107;28;20036;-87
2023/12/11 00:27:53;;;;;;;11.48;2.25;;;9.60;99.90;;;;;;5048062;28;20563;-90
2023/12/11 00:30:19;;;;;;;7.85;2.00;;;9.70;99.90;;;;;;5063669;28;20175;-90
2023/12/11 00:32:45;;;;;;;7.60;1.85;;;9.60;99.90;;;;;;5048205;28;20052;-91
2023/12/11 00:35:10;;;;;;;14.60;2.40;;;9.60;99.90;;;;;;5059880;28;20047;-91
2023/12/11 00:37:36;;;;;;;13.75;3.85;;;9.60;99.90;;;;;;5060655;28;20040;-91
2023/12/11 00:40:02;;;;;;;11.40;2.10;;;9.50;99.90;;;;;;5057732;28;20051;-91
2023/12/11 00:42:27;;;;;;;11.20;1.73;;;9.50;99.90;;;;;;5039107;28;20044;-90
2023/12/11 00:44:53;;;;;;;14.52;2.42;;;9.50;99.90;;;;;;5042776;28;20036;-90
2023/12/11 00:47:20;;;;;;;16.65;3.22;;;9.50;99.90;;;;;;5056392;28;20055;-90
2023/12/11 00:49:47;;;;;;;9.15;2.42;;;9.50;99.90;;;;;;5040664;28;20040;-90
2023/12/11 00:52:13;;;;;;;14.48;2.20;;;9.40;99.90;;;;;;5056109;28;20032;-90
2023/12/11 00:54:38;;;;;;;10.80;2.40;;;9.40;99.90;;;;;;5053804;28;20555;-91
2023/12/11 00:57:04;;;;;;;9.48;1.55;;;9.40;99.90;;;;;;5070503;28;20036;-91
2023/12/11 00:59:30;;;;;;;18.30;2.85;;;9.50;99.90;;;;;;5054393;28;20399;-91
2023/12/11 01:01:55;;;;;;;21.65;3.45;;;9.50;99.90;;;;;;5071098;28;20464;-91
2023/12/11 01:04:21;;;;;;;16.65;3.65;;;9.40;99.90;;;;;;5069802;28;20123;-91
2023/12/11 01:06:46;;;;;;;17.83;2.40;;;9.40;99.90;;;;;;5053914;28;20411;-91
2023/12/11 01:09:12;;;;;;;12.40;2.13;;;9.40;99.90;;;;;;5052813;28;20518;-91
2023/12/11 01:11:39;;;;;;;9.90;1.85;;;9.40;99.90;;;;;;5069917;28;20074;-91
2023/12/11 01:14:05;;;;;;;31.15;4.00;;;9.30;99.90;;;;;;5053209;28;20086;-91
2023/12/11 01:16:30;;;;;;;16.08;4.03;;;9.30;99.90;;;;;;5053222;28;20036;-91
2023/12/11 01:18:56;;;;;;;21.52;3.33;;;9.30;99.90;;;;;;5052897;28;20116;-91
2023/12/11 01:21:22;;;;;;;12.18;2.38;;;9.30;99.90;;;;;;5069334;28;20194;-90
2023/12/11 01:23:47;;;;;;;10.57;2.70;;;9.30;99.90;;;;;;5052937;28;20514;-91
2023/12/11 01:26:13;;;;;;;10.60;2.70;;;9.30;99.90;;;;;;5052659;28;20045;-91
2023/12/11 01:28:39;;;;;;;6.78;1.45;;;9.30;99.90;;;;;;5069218;28;20048;-91
2023/12/11 01:31:05;;;;;;;13.73;3.15;;;9.30;99.90;;;;;;5052771;28;20064;-91
2023/12/11 01:33:31;;;;;;;6.38;1.60;;;9.30;99.90;;;;;;5052411;28;20075;-91
2023/12/11 01:35:57;;;;;;;9.93;2.28;;;9.30;99.90;;;;;;5069756;28;20137;-91
2023/12/11 01:38:23;;;;;;;10.02;2.00;;;9.40;99.90;;;;;;5052766;28;20036;-91
2023/12/11 01:40:48;;;;;;;10.38;2.10;;;9.40;99.90;;;;;;5070703;28;20621;-90
2023/12/11 01:43:15;;;;;;;11.95;2.05;;;9.40;99.90;;;;;;5053252;28;20127;-91
2023/12/11 01:45:42;;;;;;;14.15;2.92;;;9.40;99.90;;;;;;5052325;28;20471;-91
2023/12/11 01:48:09;;;;;;;17.98;2.78;;;9.50;99.90;;;;;;5052670;28;20045;-91
2023/12/11 01:50:35;;;;;;;11.00;2.35;;;9.50;99.90;;;;;;5069615;28;20093;-91
2023/12/11 01:53:01;;;;;;;14.32;2.33;;;9.50;99.90;;;;;;5070015;28;20036;-91
2023/12/11 01:55:29;;;;;;;19.58;3.15;;;9.60;99.90;;;;;;5053064;28;20045;-91
2023/12/11 01:57:55;;;;;;;21.17;2.58;;;9.60;99.90;;;;;;5051627;28;20029;-91
2023/12/11 02:00:21;;;;;;;13.57;3.50;;;9.60;99.90;;;;;;5069181;28;20562;-90
2023/12/11 02:02:46;;;;;;;12.30;2.80;;;9.60;99.90;;;;;;5070646;28;20120;-90
2023/12/11 02:05:12;;;;;;;18.23;3.10;;;9.60;99.90;;;;;;5070129;28;20482;-91
2023/12/11 02:07:38;;;;;;;23.05;4.65;;;9.70;99.90;;;;;;5069396;28;20044;-90
2023/12/11 02:10:05;;;;;;;26.58;4.00;;;9.60;99.90;;;;;;5069509;28;20119;-90
2023/12/11 02:12:31;;;;;;;15.45;3.50;;;9.60;99.90;;;;;;5069351;28;20033;-91
2023/12/11 02:14:57;;;;;;;16.13;3.25;;;9.70;99.90;;;;;;5069750;28;20123;-90
2023/12/11 02:17:22;;;;;;;19.23;3.13;;;9.70;99.90;;;;;;5052529;28;20041;-91
2023/12/11 02:19:48;;;;;;;27.35;3.83;;;9.70;99.90;;;;;;5052679;28;20024;-90
2023/12/11 02:22:15;;;;;;;20.50;4.38;;;9.70;99.90;;;;;;5052739;28;20609;-91
2023/12/11 02:24:49;;;;;;;19.30;3.58;;;9.70;99.90;;;;;;5069378;28;20077;-90
2023/12/11 02:27:15;;;;;;;10.40;2.80;;;9.70;99.90;;;;;;5069071;28;20040;-91
2023/12/11 02:29:40;;;;;;;19.13;3.05;;;9.70;99.90;;;;;;5068815;28;20407;-91
2023/12/11 02:32:06;;;;;;;22.33;4.32;;;9.70;99.90;;;;;;5052895;28;20071;-91
2023/12/11 02:34:32;;;;;;;9.73;2.78;;;9.70;99.90;;;;;;5069117;28;20047;-90
2023/12/11 02:36:57;;;;;;;28.45;3.17;;;9.80;99.90;;;;;;5052393;28;20060;-91
2023/12/11 02:39:23;;;;;;;25.88;4.10;;;9.80;99.90;;;;;;5069113;28;20058;-91
2023/12/11 02:41:49;;;;;;;23.58;3.47;;;9.80;99.90;;;;;;5069015;28;20062;-91
2023/12/11 02:44:14;;;;;;;23.33;3.42;;;9.80;99.90;;;;;;5052186;28;20040;-91
2023/12/11 02:46:40;;;;;;;19.80;3.42;;;9.80;99.90;;;;;;5052131;28;20036;-91
2023/12/11 02:49:06;;;;;;;20.08;3.38;;;9.80;99.90;;;;;;5069336;28;20404;-90
2023/12/11 02:51:31;;;;;;;19.95;4.35;;;9.90;99.90;;;;;;5052407;28;20503;-90
2023/12/11 02:53:57;;;;;;;17.08;3.55;;;9.90;99.90;;;;;;5052435;28;20127;-91
2023/12/11 02:56:23;;;;;;;31.45;5.10;;;9.90;99.90;;;;;;5054283;28;20037;-92
2023/12/11 02:58:48;;;;;;;29.15;4.38;;;9.90;99.90;;;;;;5055746;28;20087;-92
2023/12/11 03:01:15;;;;;;;16.08;4.10;;;9.90;99.90;;;;;;5056179;28;20037;-92
2023/12/11 03:03:41;;;;;;;20.30;3.95;;;9.90;99.90;;;;;;5072722;28;20044;-92
2023/12/11 03:06:16;;;;;;;23.83;4.50;;;10.00;99.90;;;;;;5074123;28;20503;-92
2023/12/11 03:08:42;;;;;;;21.73;4.35;;;10.00;99.90;;;;;;5055548;28;20075;-92
2023/12/11 03:11:09;;;;;;;20.60;3.25;;;10.00;99.90;;;;;;5072550;28;20066;-92
2023/12/11 03:13:35;;;;;;;20.63;3.67;;;10.00;99.90;;;;;;5072289;28;20048;-92
2023/12/11 03:16:01;;;;;;;21.63;3.33;;;10.00;99.90;;;;;;5055783;28;20037;-92
2023/12/11 03:18:26;;;;;;;24.45;4.07;;;10.00;99.90;;;;;;5055527;28;20032;-92
2023/12/11 03:20:52;;;;;;;12.68;3.30;;;10.00;99.90;;;;;;5073570;28;20072;-92
2023/12/11 03:23:17;;;;;;;19.45;4.38;;;10.00;99.90;;;;;;5055230;28;20067;-92
2023/12/11 03:25:43;;;;;;;17.77;3.08;;;10.00;99.90;;;;;;5065525;28;20040;-92
2023/12/11 03:28:09;;;;;;;24.17;3.83;;;10.00;99.90;;;;;;5073478;28;20037;-92
2023/12/11 03:30:35;;;;;;;19.35;4.53;;;10.00;99.90;;;;;;5071386;28;20095;-92
2023/12/11 03:33:00;;;;;;;30.77;3.33;;;9.90;99.90;;;;;;5072190;28;20408;-92
2023/12/11 03:35:26;;;;;;;29.77;3.78;;;9.90;99.90;;;;;;5072073;28;20039;-92
2023/12/11 03:37:52;;;;;;;20.88;3.47;;;9.90;99.90;;;;;;5072129;28;20121;-92
2023/12/11 03:40:17;;;;;;;27.02;2.92;;;9.80;99.90;;;;;;5054838;28;20036;-92
2023/12/11 03:42:43;;;;;;;12.82;2.17;;;9.80;99.90;;;;;;5072915;28;20037;-92
2023/12/11 03:45:09;;;;;;;17.70;3.03;;;9.90;99.90;;;;;;5055341;28;20046;-92
2023/12/11 03:47:34;;;;;;;25.15;4.88;;;9.80;99.90;;;;;;5071448;28;20040;-92
2023/12/11 03:50:00;;;;;;;15.00;3.47;;;9.80;99.90;;;;;;5072949;28;20051;-92
2023/12/11 03:52:25;;;;;;;16.02;2.80;;;9.80;99.90;;;;;;5072957;28;20459;-92
2023/12/11 03:54:51;;;;;;;20.95;3.92;;;9.80;99.90;;;;;;5055135;28;20028;-92
2023/12/11 03:57:17;;;;;;;12.35;2.35;;;9.70;99.90;;;;;;5054947;28;20052;-92
2023/12/11 03:59:43;;;;;;;13.23;2.50;;;9.80;99.90;;;;;;5054794;28;20036;-92
2023/12/11 04:02:08;;;;;;;17.05;3.22;;;9.80;99.90;;;;;;5055070;28;20044;-93
2023/12/11 04:04:34;;;;;;;18.17;2.90;;;9.90;99.90;;;;;;5054715;28;20040;-92
2023/12/11 04:07:00;;;;;;;14.98;3.22;;;9.90;99.90;;;;;;5070685;28;20047;-92
2023/12/11 04:09:27;;;;;;;12.02;1.85;;;9.90;99.90;;;;;;5070794;28;20033;-92
2023/12/11 04:11:52;;;;;;;8.25;2.00;;;10.00;99.90;;;;;;5054559;28;20454;-92
2023/12/11 04:14:18;;;;;;;14.25;2.22;;;9.90;99.90;;;;;;5071479;28;20036;-92
2023/12/11 04:16:43;;;;;;;13.23;2.85;;;10.00;99.90;;;;;;5054543;28;20094;-90
2023/12/11 04:19:13;;;;;;;10.32;2.25;;;9.90;99.90;;;;;;5054334;28;20040;-89
2023/12/11 04:21:39;;;;;;;6.82;1.45;;;9.90;99.90;;;;;;5070935;28;20043;-90
2023/12/11 04:24:05;;;;;;;17.95;3.58;;;10.00;99.90;;;;;;5054674;28;20040;-89
2023/12/11 04:26:30;;;;;;;19.92;2.95;;;10.00;99.90;;;;;;5070780;28;20105;-91
2023/12/11 04:28:56;;;;;;;8.73;2.25;;;10.00;99.90;;;;;;5054570;28;20044;-92
2023/12/11 04:31:23;;;;;;;12.20;1.88;;;10.00;99.90;;;;;;5070750;28;20072;-91
2023/12/11 04:33:52;;;;;;;10.00;2.20;;;10.00;99.90;;;;;;5054403;28;20531;-92
2023/12/11 04:36:17;;;;;;;15.02;2.47;;;10.00;99.90;;;;;;5054183;28;20568;-91
2023/12/11 04:38:43;;;;;;;15.35;3.17;;;10.00;99.90;;;;;;5070575;28;20140;-92
2023/12/11 04:41:09;;;;;;;9.38;2.05;;;10.00;99.90;;;;;;5053753;28;20047;-93
2023/12/11 04:43:34;;;;;;;7.68;1.50;;;10.00;99.90;;;;;;5053693;28;20048;-92
2023/12/11 04:46:00;;;;;;;13.48;3.90;;;10.00;99.90;;;;;;5070887;28;20125;-92
2023/12/11 04:48:26;;;;;;;12.95;2.20;;;10.00;99.90;;;;;;5070520;28;20052;-92
2023/12/11 04:50:51;;;;;;;9.68;2.22;;;10.00;99.90;;;;;;5070147;28;20051;-92
2023/12/11 04:53:17;;;;;;;13.93;2.83;;;10.10;99.90;;;;;;5054254;28;20040;-92
2023/12/11 04:55:43;;;;;;;11.93;2.95;;;10.10;99.90;;;;;;5053644;28;20101;-92
2023/12/11 04:58:08;;;;;;;13.50;2.95;;;10.10;99.90;;;;;;5053553;28;20036;-91
2023/12/11 05:00:34;;;;;;;13.20;2.83;;;10.00;99.90;;;;;;5053697;28;20052;-92
2023/12/11 05:03:00;;;;;;;16.48;2.92;;;10.00;99.90;;;;;;5070320;28;20044;-92
2023/12/11 05:05:26;;;;;;;13.52;2.90;;;10.00;99.90;;;;;;5053837;28;20090;-92
2023/12/11 05:07:51;;;;;;;13.70;2.80;;;10.00;99.90;;;;;;5053457;28;20043;-92
2023/12/11 05:10:17;;;;;;;11.13;2.58;;;10.00;99.90;;;;;;5069506;28;20068;-92
2023/12/11 05:12:42;;;;;;;13.27;1.60;;;10.00;99.90;;;;;;5053781;28;20032;-92
2023/12/11 05:15:08;;;;;;;11.98;2.80;;;10.00;99.90;;;;;;5053898;28;20079;-92
2023/12/11 05:17:34;;;;;;;19.48;3.58;;;10.00;99.90;;;;;;5053309;28;20123;-91
2023/12/11 05:20:00;;;;;;;14.82;2.85;;;10.00;99.90;;;;;;5052887;28;20182;-91
2023/12/11 05:22:25;;;;;;;16.40;3.17;;;9.90;99.90;;;;;;5070511;28;20032;-91
2023/12/11 05:24:51;;;;;;;24.77;4.25;;;10.00;99.90;;;;;;5052892;28;20090;-91
2023/12/11 05:27:17;;;;;;;17.17;3.50;;;10.00;99.90;;;;;;5053558;28;20121;-92
2023/12/11 05:29:42;;;;;;;15.75;2.40;;;10.00;99.90;;;;;;5053214;28;20044;-91
2023/12/11 05:32:10;;;;;;;14.05;2.83;;;10.00;99.90;;;;;;5053163;28;20119;-91
2023/12/11 05:34:36;;;;;;;12.02;2.33;;;10.00;99.90;;;;;;5053057;28;20032;-91
2023/12/11 05:37:01;;;;;;;14.73;1.73;;;10.00;99.90;;;;;;5053147;28;20037;-92
2023/12/11 05:39:27;;;;;;;14.98;3.03;;;10.00;99.90;;;;;;5052917;28;20124;-91
2023/12/11 05:41:53;;;;;;;19.13;3.35;;;10.00;99.90;;;;;;5070848;28;20044;-91
2023/12/11 05:44:18;;;;;;;14.20;3.15;;;9.90;99.90;;;;;;5069856;28;20048;-91
2023/12/11 05:46:44;;;;;;;14.52;2.40;;;9.90;99.90;;;;;;5045460;28;20036;-91
2023/12/11 05:49:10;;;;;;;20.17;2.80;;;9.90;99.90;;;;;;5053467;28;20527;-92
2023/12/11 05:51:36;;;;;;;24.55;3.78;;;9.80;99.90;;;;;;5053277;28;20103;-91
2023/12/11 05:54:02;;;;;;;19.95;2.65;;;9.80;99.90;;;;;;5053314;28;20036;-91
2023/12/11 05:56:27;;;;;;;20.35;2.58;;;9.80;99.90;;;;;;5053445;28;20037;-91
2023/12/11 05:58:54;;;;;;;9.05;2.60;;;9.80;99.90;;;;;;5052097;28;20495;-91
2023/12/11 06:01:20;;;;;;;6.97;2.72;;;9.80;99.90;;;;;;5069148;28;20131;-91
2023/12/11 06:03:45;;;;;;;18.25;3.78;;;9.80;99.90;;;;;;5070462;28;20132;-91
2023/12/11 06:06:17;;;;;;;23.00;5.22;;;9.70;99.90;;;;;;5052794;28;20078;-90
2023/12/11 06:08:44;;;;;;;14.13;3.53;;;9.70;99.90;;;;;;5052501;28;20075;-90
2023/12/11 06:11:10;;;;;;;13.10;3.15;;;9.80;99.90;;;;;;5069221;28;20303;-91
2023/12/11 06:13:36;;;;;;;7.53;1.27;;;9.70;99.90;;;;;;5052983;28;20094;-91
2023/12/11 06:16:02;;;;;;;5.75;1.33;;;9.70;99.90;;;;;;5052775;28;20403;-91
2023/12/11 06:18:28;;;;;;;4.60;1.50;;;9.70;99.90;;;;;;5052994;28;20032;-91
2023/12/11 06:20:53;;;;;;;13.90;1.83;;;9.70;99.90;;;;;;5052244;28;20584;-91
2023/12/11 06:23:22;;;;;;;12.93;2.50;;;9.70;99.90;;;;;;5052309;28;20109;-91
2023/12/11 06:25:47;;;;;;;18.02;4.28;;;9.70;99.90;;;;;;5052645;28;20052;-92
2023/12/11 06:28:13;;;;;;;9.90;1.83;;;9.70;99.90;;;;;;5069086;28;20037;-91
2023/12/11 06:30:38;;;;;;;17.55;2.83;;;9.70;99.90;;;;;;5040016;28;20041;-91
2023/12/11 06:33:05;;;;;;;11.57;1.88;;;9.70;99.90;;;;;;5053623;28;20408;-90
2023/12/11 06:35:30;;;;;;;12.00;1.85;;;9.70;99.90;;;;;;5056899;28;20075;-91
2023/12/11 06:37:56;;;;;;;16.10;3.85;;;9.70;99.90;;;;;;5073281;28;20075;-91
2023/12/11 06:40:21;;;;;;;17.50;2.88;;;9.70;99.90;;;;;;5056251;28;20040;-91
2023/12/11 06:42:47;;;;;;;16.17;2.95;;;9.80;99.90;;;;;;5056165;28;20157;-91
2023/12/11 06:45:13;;;;;;;14.70;2.42;;;9.80;99.90;;;;;;5056258;28;20041;-92
2023/12/11 06:47:39;;;;;;;14.13;2.08;;;9.80;99.90;;;;;;5056592;28;20075;-91
2023/12/11 06:50:05;;;;;;;11.48;1.80;;;9.80;99.90;;;;;;5093121;28;20058;-92
2023/12/11 06:52:31;;;;;;;13.18;1.67;;;9.80;99.90;;;;;;5051187;28;20040;-91
2023/12/11 06:54:56;;;;;;;11.68;1.63;;;9.80;99.90;;;;;;5065254;28;20086;-93
2023/12/11 06:57:22;;;;;;;18.83;2.88;;;9.80;99.90;;;;;;5070017;28;20037;-92
2023/12/11 06:59:48;;;;;;;22.77;3.05;;;9.80;99.90;;;;;;5046747;28;20068;-92
2023/12/11 07:02:13;;;;;;;7.00;1.67;;;9.80;99.90;;;;;;5045494;28;20068;-92
2023/12/11 07:04:42;;;;;;;16.45;2.72;;;9.90;99.90;;;;;;5053949;28;20514;-92
2023/12/11 07:07:09;;;;;;;17.00;3.15;;;9.80;99.90;;;;;;5056497;28;20037;-92
2023/12/11 07:09:35;;;;;;;22.75;3.40;;;9.80;99.90;;;;;;5072273;28;20422;-93
2023/12/11 07:12:00;;;;;;;18.73;3.70;;;9.80;99.90;;;;;;5055614;28;20045;-91
2023/12/11 07:14:26;;;;;;;10.93;2.20;;;9.80;99.90;;;;;;5056074;28;20128;-91
2023/12/11 07:16:52;;;;;;;18.98;3.03;;;9.80;99.90;;;;;;5055747;28;20068;-90
2023/12/11 07:19:19;;;;;;;24.33;2.85;;;9.80;99.90;;;;;;5055554;28;20033;-91
2023/12/11 07:21:45;;;;;;;16.10;3.53;;;9.80;99.90;;;;;;5055229;28;20040;-92
2023/12/11 07:24:11;;;;;;;14.88;2.88;;;9.80;99.90;;;;;;5055648;28;20131;-91
2023/12/11 07:26:36;;;;;;;13.25;2.15;;;9.80;99.90;;;;;;5055836;28;20188;-91
2023/12/11 07:29:04;;;;;;;15.32;2.25;;;9.80;99.90;;;;;;5072112;28;20455;-91
2023/12/11 07:31:30;;;;;;;25.90;2.42;;;9.80;99.90;;;;;;5055327;28;20044;-91
2023/12/11 07:33:56;;;;;;;13.38;1.98;;;9.70;99.90;;;;;;5072004;28;20036;-92
2023/12/11 07:36:22;;;;;;;15.13;2.58;;;9.70;99.90;;;;;;5072610;28;20033;-92
2023/12/11 07:38:49;;;;;;;13.45;1.88;;;9.80;99.90;;;;;;5055475;28;20043;-91
2023/12/11 07:41:19;;;;;;;13.93;2.72;;;9.70;99.90;;;;;;5055393;28;20040;-92
2023/12/11 07:43:45;;;;;;;14.00;2.40;;;9.70;99.90;;;;;;5054103;28;20127;-91
2023/12/11 07:46:18;;;;;;;14.80;2.40;;;9.70;99.90;;;;;;5055318;28;20135;-91
2023/12/11 07:48:43;;;;;;;;;;;9.70;99.90;;;;;;5055933;28;20484;-91
2023/12/11 07:51:25;;;;;;;7.90;1.30;;;9.70;99.90;;;;;;5054932;28;19923;-91
2023/12/11 07:53:52;;;;;;;7.75;1.17;;;9.70;99.90;;;;;;5055067;28;20496;-91
2023/12/11 07:56:25;;;;;;;12.02;1.85;;;9.70;99.90;;;;;;5055736;28;20248;-92
2023/12/11 07:58:51;;;;;;;10.90;2.35;;;9.70;99.90;;;;;;5054619;28;20174;-91
2023/12/11 08:01:18;;;;;;;11.80;2.67;;;9.70;99.90;;;;;;5071461;28;20044;-91
2023/12/11 08:03:43;;;;;;;11.50;1.85;;;9.60;99.90;;;;;;5055017;28;20123;-91
2023/12/11 08:06:10;;;;;;;12.90;2.03;;;9.70;99.90;;;;;;5071767;28;20120;-91
2023/12/11 08:08:40;;;;;;;12.48;2.60;;;9.70;99.90;;;;;;5062577;28;20166;-92
2023/12/11 08:11:21;;;;;;;5.78;1.55;;;9.60;99.90;;;;;;5071519;28;20453;-91
2023/12/11 08:13:47;;;;;;;6.82;2.08;;;9.60;99.90;;;;;;5072822;28;20044;-92
2023/12/11 08:16:13;;;;;;;8.95;1.20;;;9.60;99.90;;;;;;5073266;28;20101;-91
2023/12/11 08:18:40;;;;;;;10.65;2.42;;;9.60;99.90;;;;;;5052109;28;20045;-91
2023/12/11 08:21:06;;;;;;;8.85;1.85;;;9.60;99.90;;;;;;5064809;28;20037;-91
2023/12/11 08:23:32;;;;;;;7.60;1.40;;;9.60;99.90;;;;;;5060426;28;20040;-91
2023/12/11 08:25:58;;;;;;;6.10;1.13;;;9.60;99.90;;;;;;5040585;28;20047;-91
2023/12/11 08:28:23;;;;;;;13.88;2.55;;;9.60;99.90;;;;;;5042514;28;20025;-91
2023/12/11 08:30:49;;;;;;;5.45;2.20;;;9.60;99.90;;;;;;5061083;28;20447;-92
2023/12/11 08:33:14;;;;;;;6.30;1.58;;;9.60;99.90;;;;;;5055849;28;20493;-91
2023/12/11 08:35:40;;;;;;;4.60;1.30;;;9.60;99.90;;;;;;5042074;28;20040;-91
2023/12/11 08:38:06;;;;;;;9.40;1.88;;;9.60;99.90;;;;;;5056975;28;20045;-92
2023/12/11 08:40:31;;;;;;;4.38;0.73;;;9.50;99.90;;;;;;5056151;28;20032;-92
2023/12/11 08:42:58;;;;;;;6.45;1.40;;;9.50;99.90;;;;;;5058506;28;20101;-91
2023/12/11 08:45:23;;;;;;;5.25;1.00;;;9.50;99.90;;;;;;5044438;28;20067;-91
2023/12/11 08:47:49;;;;;;;3.50;0.70;;;9.50;99.90;;;;;;5054149;28;20094;-90
2023/12/11 08:50:16;;;;;;;8.25;1.13;;;9.50;99.90;;;;;;5071396;28;20043;-90
2023/12/11 08:52:43;;;;;;;2.10;0.80;;;9.50;99.90;;;;;;5070464;28;20049;-91
2023/12/11 08:55:08;;;;;;;3.25;0.73;;;9.50;99.90;;;;;;5044822;28;20041;-91
2023/12/11 08:57:35;;;;;;;6.93;1.45;;;9.50;99.90;;;;;;5041270;28;20560;-90
2023/12/11 09:00:03;;;;;;;2.05;0.68;;;9.50;99.90;;;;;;5055293;28;20404;-90
2023/12/11 09:02:28;;;;;;;2.30;0.65;;;9.40;99.90;;;;;;5039948;28;20037;-90
2023/12/11 09:04:54;;;;;;;4.85;1.00;;;9.40;99.90;;;;;;5056819;28;20044;-91
2023/12/11 09:07:20;;;;;;;2.63;0.68;;;9.40;99.90;;;;;;5055798;28;20346;-91
2023/12/11 09:09:45;;;;;;;2.25;0.60;;;9.40;99.90;;;;;;5040906;28;20060;-90
2023/12/11 09:12:11;;;;;;;4.68;0.93;;;9.40;99.90;;;;;;5038959;28;20037;-91
2023/12/11 09:14:37;;;;;;;4.22;0.95;;;9.40;99.90;;;;;;5046880;28;20041;-91
2023/12/11 09:17:03;;;;;;;3.22;1.33;;;9.50;99.90;;;;;;5040449;28;20033;-91
2023/12/11 09:19:28;;;;;;;4.80;1.40;;;9.40;99.90;;;;;;5040372;28;20037;-89
2023/12/11 09:21:54;;;;;;;6.18;0.98;;;9.50;99.90;;;;;;5042878;28;20029;-90
2023/12/11 09:24:20;;;;;;;2.30;0.77;;;9.50;99.90;;;;;;5055229;28;20528;-90
2023/12/11 09:26:45;;;;;;;2.92;0.68;;;9.50;99.90;;;;;;5043946;28;20036;-89
2023/12/11 09:29:11;;;;;;;3.67;0.75;;;9.50;99.90;;;;;;5038501;28;20519;-90
2023/12/11 09:31:38;;;;;;;4.75;0.93;;;9.50;99.90;;;;;;5045401;28;20579;-90
2023/12/11 09:34:04;;;;;;;7.75;1.70;;;9.50;99.90;;;;;;5070028;28;20128;-90
2023/12/11 09:36:29;;;;;;;17.05;2.78;;;9.60;99.90;;;;;;5053479;28;20055;-90
2023/12/11 09:38:58;;;;;;;10.93;2.17;;;9.60;99.90;;;;;;5049557;28;20112;-90
2023/12/11 09:41:31;;;;;;;8.95;2.25;;;9.60;99.90;;;;;;5055615;28;20120;-91
2023/12/11 09:43:57;;;;;;;5.88;1.20;;;9.70;99.90;;;;;;5043227;28;20033;-90
2023/12/11 09:46:24;;;;;;;7.72;1.67;;;9.70;99.90;;;;;;5055775;28;20112;-91
2023/12/11 09:48:51;;;;;;;8.55;2.75;;;9.70;99.90;;;;;;5057105;28;20041;-90
2023/12/11 09:51:17;;;;;;;18.20;3.80;;;9.70;99.90;;;;;;5040837;28;20041;-90
2023/12/11 09:53:44;;;;;;;3.33;1.00;;;9.70;99.90;;;;;;5040813;28;20040;-90
2023/12/11 09:56:14;;;;;;;8.27;1.33;;;9.70;99.90;;;;;;5059183;28;20350;-90
2023/12/11 09:58:42;;;;;;;10.13;1.77;;;9.70;99.90;;;;;;5057580;28;20033;-90
2023/12/11 10:01:09;;;;;;;3.42;0.73;;;9.70;99.90;;;;;;5040941;28;20033;-91
2023/12/11 10:03:35;;;;;;;6.80;1.35;;;9.70;99.90;;;;;;5059498;28;20055;-90
2023/12/11 10:06:02;;;;;;;11.07;2.42;;;9.60;99.90;;;;;;5057337;28;20040;-91
2023/12/11 10:08:28;;;;;;;5.57;1.33;;;9.70;99.90;;;;;;5062000;28;20099;-90
2023/12/11 10:11:12;;;;;;;5.93;1.77;;;9.70;99.90;;;;;;5055783;28;20036;-90
2023/12/11 10:13:38;;;;;;;17.40;2.25;;;9.70;99.90;;;;;;5082886;28;20064;-92
2023/12/11 10:16:05;;;;;;;2.85;0.85;;;9.70;99.90;;;;;;5040197;28;20078;-91
2023/12/11 10:18:31;;;;;;;5.95;1.00;;;9.70;99.90;;;;;;5039845;28;20124;-91
2023/12/11 10:20:58;;;;;;;2.58;0.63;;;9.80;99.90;;;;;;5041683;28;20111;-91
2023/12/11 10:23:24;;;;;;;7.90;1.10;;;9.80;99.90;;;;;;5077805;28;20044;-91
2023/12/11 10:26:03;;;;;;;8.88;2.00;;;9.80;99.90;;;;;;5042604;28;20093;-91
2023/12/11 10:28:29;;;;;;;9.95;1.15;;;9.80;99.90;;;;;;5039737;28;20041;-91
2023/12/11 10:30:59;;;;;;;5.68;0.93;;;9.80;99.90;;;;;;5038532;28;20037;-91
2023/12/11 10:33:26;;;;;;;3.90;0.93;;;9.80;99.90;;;;;;5055434;28;20116;-91
2023/12/11 10:36:06;;;;;;;5.28;0.88;;;9.90;99.90;;;;;;5042166;28;20028;-91
2023/12/11 10:38:32;;;;;;;7.72;0.95;;;9.90;99.90;;;;;;5039530;28;20119;-91
2023/12/11 10:40:58;;;;;;;8.38;1.52;;;9.90;99.90;;;;;;5048033;28;20120;-91
2023/12/11 10:43:23;;;;;;;6.93;1.08;;;10.00;99.90;;;;;;5041363;28;20484;-91
2023/12/11 10:45:49;;;;;;;4.03;0.77;;;10.00;99.90;;;;;;5039756;28;20578;-92
2023/12/11 10:48:15;;;;;;;4.18;0.75;;;10.00;99.90;;;;;;5038179;28;20037;-91
2023/12/11 10:50:42;;;;;;;5.13;0.93;;;10.00;99.90;;;;;;5044797;28;20124;-91
2023/12/11 10:53:08;;;;;;;4.53;0.85;;;10.00;99.90;;;;;;5038929;28;20484;-90
2023/12/11 10:55:36;;;;;;;7.78;1.30;;;10.00;99.90;;;;;;5040312;28;20044;-91
2023/12/11 10:58:03;;;;;;;5.15;1.27;;;10.00;99.90;;;;;;5063413;28;20511;-90
2023/12/11 11:00:31;;;;;;;8.77;1.25;;;10.00;99.90;;;;;;5044595;28;20112;-92
2023/12/11 11:02:58;;;;;;;4.85;1.13;;;10.00;99.90;;;;;;5044589;28;20051;-91
2023/12/11 11:05:26;;;;;;;4.70;1.15;;;10.00;99.90;;;;;;5069710;28;20044;-90
2023/12/11 11:08:06;;;;;;;6.15;1.10;;;10.00;99.90;;;;;;5052377;28;20040;-90
2023/12/11 11:10:39;;;;;;;5.93;0.73;;;10.00;99.90;;;;;;5051830;28;20048;-91
2023/12/11 11:13:14;;;;;;;3.53;1.02;;;9.90;99.90;;;;;;5052480;28;20044;-90
2023/12/11 11:15:39;;;;;;;4.82;0.88;;;9.90;99.90;;;;;;5052695;28;20665;-89
2023/12/11 11:18:07;;;;;;;6.35;1.55;;;9.90;99.90;;;;;;5055081;28;20036;-90
2023/12/11 11:20:37;;;;;;;2.47;0.77;;;9.80;99.90;;;;;;5055945;28;20051;-90
2023/12/11 11:23:18;;;;;;;7.30;1.30;;;9.80;99.90;;;;;;5072405;28;20044;-90
2023/12/11 11:25:52;;;;;;;5.63;1.17;;;9.80;99.90;;;;;;5055988;28;20050;-90
2023/12/11 11:28:42;;;;;;;4.18;0.80;;;9.80;99.90;;;;;;5055891;28;20053;-90
2023/12/11 11:31:11;;;;;;;4.60;1.10;;;9.80;99.90;;;;;;5055798;28;20040;-91
2023/12/11 11:33:51;;;;;;;8.32;1.50;;;9.80;99.90;;;;;;5072379;28;20134;-91
2023/12/11 11:36:19;;;;;;;3.30;0.80;;;9.80;99.90;;;;;;5072839;28;20082;-91
2023/12/11 11:38:56;;;;;;;9.65;2.20;;;9.80;99.90;;;;;;5055610;28;20047;-91
2023/12/11 11:41:29;;;;;;;6.70;1.00;;;9.80;99.90;;;;;;5055821;28;20041;-90
2023/12/11 11:43:58;;;;;;;4.65;1.10;;;9.80;99.90;;;;;;5071873;28;20036;-90
2023/12/11 11:46:25;;;;;;;8.27;2.33;;;9.90;99.90;;;;;;5055518;28;20071;-91
2023/12/11 11:48:51;;;;;;;6.75;1.48;;;9.90;99.90;;;;;;5047772;28;20467;-90
2023/12/11 11:51:17;;;;;;;2.42;0.75;;;9.80;99.90;;;;;;5060167;28;20527;-90
2023/12/11 11:53:45;;;;;;;3.80;1.05;;;9.90;99.90;;;;;;5045691;28;20043;-90
2023/12/11 11:56:11;;;;;;;8.63;1.40;;;9.80;99.90;;;;;;5056946;28;20037;-91
2023/12/11 11:58:37;;;;;;;8.32;2.53;;;9.80;99.90;;;;;;5063294;28;20044;-91
2023/12/11 12:01:04;;;;;;;7.82;1.45;;;9.80;99.90;;;;;;5071275;28;20055;-90
2023/12/11 12:03:42;;;;;;;8.32;1.10;;;9.80;99.90;;;;;;5071716;28;20556;-91
2023/12/11 12:06:09;;;;;;;6.97;1.27;;;9.80;99.90;;;;;;5054739;28;20036;-91
2023/12/11 12:08:36;;;;;;;9.70;1.95;;;9.80;99.90;;;;;;5057275;28;20049;-91
2023/12/11 12:11:06;;;;;;;8.43;2.20;;;9.80;99.90;;;;;;5059399;28;20573;-91
2023/12/11 12:13:36;;;;;;;9.60;2.33;;;9.80;99.90;;;;;;5056934;28;20044;-91
2023/12/11 12:16:02;;;;;;;8.68;2.70;;;9.80;99.90;;;;;;5061489;28;20123;-91
2023/12/11 12:18:28;;;;;;;8.23;1.00;;;9.80;99.90;;;;;;5047947;28;20037;-91
2023/12/11 12:21:03;;;;;;;10.40;2.67;;;9.80;99.90;;;;;;5064901;28;20047;-91
2023/12/11 12:23:30;;;;;;;5.82;1.17;;;9.80;99.90;;;;;;5065575;28;20051;-91
2023/12/11 12:25:59;;;;;;;4.65;1.23;;;9.80;99.90;;;;;;5045662;28;20090;-91
2023/12/11 12:28:26;;;;;;;8.93;1.83;;;9.80;99.90;;;;;;5067742;28;20036;-91
2023/12/11 12:30:52;;;;;;;11.23;1.95;;;9.80;99.90;;;;;;5056345;28;20090;-91
2023/12/11 12:33:19;;;;;;;9.40;1.90;;;9.80;99.90;;;;;;5055281;28;20040;-91
2023/12/11 12:35:45;;;;;;;4.03;0.88;;;9.80;99.90;;;;;;5070473;28;20044;-91
2023/12/11 12:38:13;;;;;;;8.60;1.40;;;9.80;99.90;;;;;;5049657;28;20420;-91
2023/12/11 12:40:39;;;;;;;4.97;0.80;;;9.90;99.90;;;;;;5052245;28;20033;-91
2023/12/11 12:43:14;;;;;;;10.05;1.20;;;10.00;99.90;;;;;;5054453;28;20036;-91
2023/12/11 12:45:41;;;;;;;8.52;1.98;;;10.40;99.90;;;;;;5054513;28;20040;-90
2023/12/11 12:48:10;;;;;;;5.38;0.88;;;10.60;99.90;;;;;;5071072;28;20044;-91